createdAt,value
2023-03-26T00:01:05.808Z,2.40
2023-03-26T00:05:14.617Z,2.72
2023-03-26T00:09:21.387Z,2.25
2023-03-26T00:13:28.075Z,2.28
2023-03-26T00:17:34.812Z,2.17
2023-03-26T00:21:41.726Z,2.13
2023-03-26T00:25:50.890Z,1.63
2023-03-26T00:29:59.617Z,2.60
2023-03-26T00:34:06.856Z,2.92
2023-03-26T00:38:14.768Z,2.85
2023-03-26T00:42:21.409Z,2.10
2023-03-26T00:46:31.191Z,2.78
2023-03-26T00:50:37.906Z,2.72
2023-03-26T00:54:48.452Z,2.85
2023-03-26T00:58:55.142Z,2.50
2023-03-26T01:03:04.546Z,3.13
2023-03-26T01:07:14.156Z,2.22
2023-03-26T01:11:27.963Z,3.13
2023-03-26T01:15:37.279Z,1.85
2023-03-26T01:19:57.124Z,2.38
2023-03-26T01:24:05.846Z,1.98
2023-03-26T01:28:13.579Z,1.63
2023-03-26T01:32:48.289Z,1.05
2023-03-26T01:37:13.114Z,1.95
2023-03-26T01:41:23.785Z,2.58
2023-03-26T01:45:38.152Z,2.00
2023-03-26T01:49:44.853Z,1.77
2023-03-26T01:53:53.069Z,1.85
2023-03-26T01:58:16.215Z,2.78
2023-03-26T02:02:38.763Z,1.80
2023-03-26T02:06:51.671Z,1.38
2023-03-26T02:11:01.142Z,1.67
2023-03-26T02:15:08.512Z,2.90
2023-03-26T02:19:21.405Z,1.90
2023-03-26T02:23:29.632Z,1.92
2023-03-26T02:27:37.770Z,1.70
2023-03-26T02:31:44.439Z,2.67
2023-03-26T02:35:51.170Z,2.13
2023-03-26T02:39:57.862Z,2.00
2023-03-26T02:44:05.765Z,2.78
2023-03-26T02:48:13.139Z,1.90
2023-03-26T02:52:19.904Z,1.50
2023-03-26T02:56:26.548Z,1.80
2023-03-26T03:00:34.360Z,1.83
2023-03-26T03:04:41.068Z,3.95
2023-03-26T03:08:47.832Z,2.45
2023-03-26T03:12:55.025Z,1.95
2023-03-26T03:17:01.747Z,1.92
2023-03-26T03:21:08.597Z,2.28
2023-03-26T03:25:17.445Z,2.92
2023-03-26T03:29:24.234Z,3.05
2023-03-26T03:33:31.356Z,4.03
2023-03-26T03:37:38.038Z,4.55
2023-03-26T03:41:44.781Z,4.15
2023-03-26T03:45:51.643Z,4.15
2023-03-26T03:50:00.229Z,5.50
2023-03-26T03:54:08.496Z,5.60
2023-03-26T03:58:21.701Z,6.53
2023-03-26T04:02:34.780Z,6.85
2023-03-26T04:06:41.758Z,7.25
2023-03-26T04:10:49.551Z,7.20
2023-03-26T04:14:56.905Z,6.03
2023-03-26T04:19:03.988Z,5.32
2023-03-26T04:23:14.148Z,6.25
2023-03-26T04:27:27.286Z,7.70
2023-03-26T04:31:34.195Z,7.13
2023-03-26T04:35:44.283Z,6.75
2023-03-26T04:39:50.996Z,6.22
2023-03-26T04:43:57.942Z,6.45
2023-03-26T04:48:07.280Z,6.60
2023-03-26T04:52:14.821Z,5.57
2023-03-26T04:56:35.292Z,5.57
2023-03-26T05:00:43.129Z,5.88
2023-03-26T05:04:50.011Z,5.68
2023-03-26T05:08:56.706Z,4.47
2023-03-26T05:13:03.394Z,5.68
2023-03-26T05:17:14.945Z,6.85
2023-03-26T05:21:22.396Z,5.50
2023-03-26T05:25:29.354Z,6.40
2023-03-26T05:29:35.983Z,5.80
2023-03-26T05:33:42.773Z,4.32
2023-03-26T05:37:51.376Z,5.78
2023-03-26T05:41:58.065Z,6.03
2023-03-26T05:46:04.970Z,6.55
2023-03-26T05:50:12.069Z,4.80
2023-03-26T05:54:18.739Z,5.38
2023-03-26T05:58:30.351Z,5.60
2023-03-26T06:02:37.079Z,4.50
2023-03-26T06:06:44.864Z,5.10
2023-03-26T06:10:57.623Z,7.82
2023-03-26T06:15:04.635Z,5.15
2023-03-26T06:19:11.364Z,5.70
2023-03-26T06:23:19.140Z,6.20
2023-03-26T06:27:25.839Z,6.05
2023-03-26T06:31:32.519Z,7.18
2023-03-26T06:35:39.391Z,7.50
2023-03-26T06:39:46.095Z,6.90
2023-03-26T06:43:52.948Z,6.47
2023-03-26T06:48:00.146Z,6.60
2023-03-26T06:52:06.792Z,7.75
2023-03-26T06:56:13.559Z,7.18
2023-03-26T07:00:21.014Z,7.38
2023-03-26T07:04:27.824Z,7.65
2023-03-26T07:08:34.595Z,7.90
2023-03-26T07:12:42.436Z,7.63
2023-03-26T07:16:49.227Z,7.45
2023-03-26T07:20:56.476Z,6.85
2023-03-26T07:25:03.689Z,8.27
2023-03-26T07:29:34.258Z,6.18
2023-03-26T07:33:51.525Z,7.65
2023-03-26T07:38:21.157Z,6.72
2023-03-26T07:42:43.032Z,7.32
2023-03-26T07:46:53.218Z,8.15
2023-03-26T07:51:00.364Z,6.72
2023-03-26T07:55:07.931Z,8.30
2023-03-26T07:59:36.901Z,7.10
2023-03-26T08:04:26.310Z,7.28
2023-03-26T08:08:47.097Z,7.35
2023-03-26T08:13:01.016Z,7.15
2023-03-26T08:17:10.664Z,7.57
2023-03-26T08:21:23.610Z,7.32
2023-03-26T08:26:10.379Z,7.40
2023-03-26T08:30:22.491Z,10.23
2023-03-26T08:34:29.159Z,10.18
2023-03-26T08:38:35.895Z,10.45
2023-03-26T08:43:05.191Z,7.93
2023-03-26T08:47:37.247Z,8.98
2023-03-26T08:52:02.360Z,9.98
2023-03-26T08:56:26.459Z,9.98
2023-03-26T09:00:41.731Z,9.13
2023-03-26T09:04:57.469Z,8.93
2023-03-26T09:09:23.039Z,7.10
2023-03-26T09:13:54.526Z,6.63
2023-03-26T09:18:28.938Z,8.13
2023-03-26T09:23:08.659Z,8.30
2023-03-26T09:27:34.300Z,5.97
2023-03-26T09:32:07.457Z,6.38
2023-03-26T09:36:33.023Z,5.80
2023-03-26T09:41:08.602Z,5.03
2023-03-26T09:45:37.356Z,5.80
2023-03-26T09:50:25.870Z,5.20
2023-03-26T09:54:44.751Z,6.15
2023-03-26T09:58:51.400Z,3.90
2023-03-26T10:03:08.145Z,3.67
2023-03-26T10:07:24.044Z,3.90
2023-03-26T10:12:00.781Z,3.50
2023-03-26T10:16:31.316Z,3.78
2023-03-26T10:20:46.316Z,3.42
2023-03-26T10:25:22.055Z,3.42
2023-03-26T10:29:53.731Z,3.35
2023-03-26T10:34:37.307Z,3.38
2023-03-26T10:39:03.068Z,2.90
2023-03-26T10:43:31.340Z,3.45
2023-03-26T10:48:08.962Z,2.75
2023-03-26T10:52:22.417Z,2.55
2023-03-26T10:56:46.184Z,2.10
2023-03-26T11:01:03.473Z,4.22
2023-03-26T11:05:23.260Z,4.20
2023-03-26T11:09:41.805Z,2.75
2023-03-26T11:14:09.564Z,2.70
2023-03-26T11:18:22.873Z,2.63
2023-03-26T11:22:46.411Z,2.80
2023-03-26T11:27:15.216Z,2.58
2023-03-26T11:31:28.726Z,2.25
2023-03-26T11:35:41.749Z,1.70
2023-03-26T11:39:55.140Z,1.65
2023-03-26T11:44:13.282Z,1.52
2023-03-26T11:48:31.730Z,2.33
2023-03-26T11:52:38.432Z,1.50
2023-03-26T11:57:06.022Z,1.63
2023-03-26T12:01:16.602Z,2.15
2023-03-26T12:05:26.630Z,2.53
2023-03-26T12:09:33.408Z,1.88
2023-03-26T12:13:44.081Z,1.20
2023-03-26T12:17:56.034Z,1.98
2023-03-26T12:22:02.817Z,1.60
2023-03-26T12:26:17.359Z,1.83
2023-03-26T12:30:33.881Z,1.27
2023-03-26T12:34:41.058Z,2.15
2023-03-26T12:40:06.234Z,1.20
2023-03-26T12:44:47.302Z,1.27
2023-03-26T12:48:01.599Z,1.50
2023-03-26T12:52:39.540Z,1.20
2023-03-26T12:57:12.111Z,1.30
2023-03-26T13:01:41.955Z,2.30
2023-03-26T13:06:02.649Z,0.80
2023-03-26T13:10:12.386Z,0.55
2023-03-26T13:14:38.935Z,0.70
2023-03-26T13:19:01.138Z,1.05
2023-03-26T13:23:32.294Z,1.15
2023-03-26T13:27:44.847Z,0.90
2023-03-26T13:32:05.781Z,0.47
2023-03-26T13:36:23.755Z,0.90
2023-03-26T13:40:52.996Z,1.40
2023-03-26T13:45:43.621Z,0.70
2023-03-26T13:49:54.742Z,0.70
2023-03-26T13:54:24.118Z,0.90
2023-03-26T13:58:44.399Z,2.03
2023-03-26T14:03:02.968Z,1.10
2023-03-26T14:07:22.489Z,0.40
2023-03-26T14:11:44.383Z,0.50
2023-03-26T14:16:26.353Z,0.50
2023-03-26T14:20:51.410Z,1.10
2023-03-26T14:25:08.398Z,0.55
2023-03-26T14:29:33.912Z,0.60
2023-03-26T14:33:59.645Z,1.02
2023-03-26T14:38:40.506Z,1.15
2023-03-26T14:42:56.385Z,0.60
2023-03-26T14:47:21.318Z,0.45
2023-03-26T14:51:43.038Z,0.70
2023-03-26T14:56:27.495Z,0.50
2023-03-26T15:01:06.642Z,0.50
2023-03-26T15:06:03.297Z,1.35
2023-03-26T15:10:41.089Z,0.70
2023-03-26T15:15:21.687Z,1.10
2023-03-26T15:19:56.071Z,0.50
2023-03-26T15:24:28.538Z,0.70
2023-03-26T15:29:09.737Z,0.60
2023-03-26T15:33:47.236Z,1.60
2023-03-26T15:38:28.294Z,1.10
2023-03-26T15:42:53.706Z,0.70
2023-03-26T15:47:29.445Z,0.60
2023-03-26T15:52:03.867Z,0.50
2023-03-26T15:56:10.713Z,0.90
2023-03-26T16:00:30.366Z,0.73
2023-03-26T16:04:50.457Z,0.47
2023-03-26T16:09:38.822Z,0.52
2023-03-26T16:14:12.507Z,1.08
2023-03-26T16:18:27.570Z,0.75
2023-03-26T16:23:01.615Z,0.60
2023-03-26T16:27:14.302Z,0.65
2023-03-26T16:31:37.507Z,0.52
2023-03-26T16:36:18.394Z,1.67
2023-03-26T16:40:28.260Z,0.93
2023-03-26T16:45:06.380Z,0.40
2023-03-26T16:49:37.855Z,1.25
2023-03-26T16:54:12.979Z,0.70
2023-03-26T16:59:06.417Z,0.40
2023-03-26T17:03:13.479Z,0.90
2023-03-26T17:07:37.156Z,0.95
2023-03-26T17:11:57.451Z,0.40
2023-03-26T17:16:18.607Z,0.43
2023-03-26T17:20:37.358Z,0.57
2023-03-26T17:24:57.369Z,0.40
2023-03-26T17:29:28.663Z,0.93
2023-03-26T17:33:38.731Z,0.82
2023-03-26T17:37:48.053Z,0.70
2023-03-26T17:42:10.417Z,0.40
2023-03-26T17:46:34.686Z,0.40
2023-03-26T17:50:49.157Z,0.70
2023-03-26T17:54:56.988Z,0.93
2023-03-26T17:59:11.819Z,0.50
2023-03-26T18:03:43.940Z,2.58
2023-03-26T18:08:19.580Z,0.70
2023-03-26T18:12:50.116Z,0.50
2023-03-26T18:17:00.177Z,0.57
2023-03-26T18:21:07.558Z,0.38
2023-03-26T18:25:32.203Z,0.45
2023-03-26T18:29:44.433Z,1.17
2023-03-26T18:33:56.969Z,0.82
2023-03-26T18:42:23.331Z,0.38
2023-03-26T18:46:33.001Z,0.30
2023-03-26T18:50:42.008Z,0.30
2023-03-26T18:54:52.102Z,0.77
2023-03-26T18:59:00.414Z,0.50
2023-03-26T19:03:08.243Z,0.35
2023-03-26T19:07:22.311Z,0.30
2023-03-26T19:11:30.253Z,0.50
2023-03-26T19:15:36.965Z,0.40
2023-03-26T19:19:43.649Z,0.60
2023-03-26T19:23:53.053Z,0.35
2023-03-26T19:27:59.818Z,0.40
2023-03-26T19:32:16.919Z,0.40
2023-03-26T19:36:29.616Z,0.80
2023-03-26T19:44:44.077Z,1.38
2023-03-26T19:48:53.309Z,1.13
2023-03-26T19:53:32.434Z,0.30
2023-03-26T19:57:39.097Z,0.40
2023-03-26T20:01:46.247Z,0.30
2023-03-26T20:05:52.951Z,1.58
2023-03-26T20:10:01.071Z,0.80
2023-03-26T20:14:16.803Z,0.82
2023-03-26T20:18:23.864Z,0.40
2023-03-26T20:22:31.454Z,0.73
2023-03-26T20:26:38.101Z,0.40
2023-03-26T20:30:46.695Z,0.60
2023-03-26T20:34:53.451Z,0.40
2023-03-26T20:39:00.790Z,0.87
2023-03-26T20:43:18.292Z,0.80
2023-03-26T20:47:25.314Z,0.93
2023-03-26T20:51:32.015Z,1.58
2023-03-26T20:55:38.669Z,0.55
2023-03-26T20:59:45.708Z,0.83
2023-03-26T21:03:52.398Z,0.88
2023-03-26T21:08:00.297Z,0.77
2023-03-26T21:12:29.615Z,0.45
2023-03-26T21:16:37.295Z,0.60
2023-03-26T21:20:51.368Z,0.70
2023-03-26T21:25:43.235Z,0.50
2023-03-26T21:29:50.221Z,1.43
2023-03-26T21:33:57.260Z,1.60
2023-03-26T21:38:05.410Z,0.60
2023-03-26T21:42:13.037Z,0.50
2023-03-26T21:46:20.445Z,1.33
2023-03-26T21:50:27.593Z,0.40
2023-03-26T21:54:34.530Z,0.37
2023-03-26T21:59:03.656Z,0.67
2023-03-26T22:03:25.350Z,0.90
2023-03-26T22:08:01.748Z,0.30
2023-03-26T22:12:08.803Z,0.40
2023-03-26T22:16:16.724Z,0.43
2023-03-26T22:20:28.013Z,0.70
2023-03-26T22:24:34.637Z,0.33
2023-03-26T22:28:41.485Z,0.40
2023-03-26T22:32:48.693Z,1.70
2023-03-26T22:36:55.421Z,0.50
2023-03-26T22:41:02.532Z,0.57
2023-03-26T22:45:09.969Z,0.93
2023-03-26T22:49:17.621Z,0.83
2023-03-26T22:53:25.062Z,0.57
2023-03-26T22:57:31.891Z,0.40
2023-03-26T23:01:38.982Z,0.97
2023-03-26T23:05:56.034Z,0.93
2023-03-26T23:10:02.982Z,0.40
2023-03-26T23:14:09.643Z,1.13
2023-03-26T23:18:17.220Z,0.97
2023-03-26T23:22:24.430Z,0.30
2023-03-26T23:26:43.942Z,0.27
2023-03-26T23:30:57.008Z,0.90
2023-03-26T23:35:04.641Z,0.40
2023-03-26T23:39:11.533Z,0.30
2023-03-26T23:43:21.510Z,0.20
2023-03-26T23:47:34.185Z,0.40
2023-03-26T23:51:42.098Z,0.30
2023-03-26T23:55:49.812Z,0.30
2023-03-26T23:59:56.530Z,0.50
